sensor_id;sensor_type;location;lat;lon;timestamp;P1;durP1;ratioP1;P2;durP2;ratioP2
40170;SDS011;37650;52.790;18.268;2023-01-19T00:00:57;60.90;;;36.10;;
40170;SDS011;37650;52.790;18.268;2023-01-19T00:04:18;48.70;;;29.20;;
40170;SDS011;37650;52.790;18.268;2023-01-19T00:07:39;48.60;;;30.30;;
40170;SDS011;37650;52.790;18.268;2023-01-19T00:11:01;52.70;;;33.80;;
40170;SDS011;37650;52.790;18.268;2023-01-19T00:14:23;49.10;;;30.80;;
40170;SDS011;37650;52.790;18.268;2023-01-19T00:17:45;47.80;;;30.10;;
40170;SDS011;37650;52.790;18.268;2023-01-19T00:21:06;47.70;;;30.80;;
40170;SDS011;37650;52.790;18.268;2023-01-19T00:24:27;54.90;;;35.70;;
40170;SDS011;37650;52.790;18.268;2023-01-19T00:27:48;67.90;;;40.30;;
40170;SDS011;37650;52.790;18.268;2023-01-19T00:31:09;55.50;;;31.60;;
40170;SDS011;37650;52.790;18.268;2023-01-19T00:34:31;56.90;;;34.90;;
40170;SDS011;37650;52.790;18.268;2023-01-19T00:38:02;49.30;;;30.80;;
40170;SDS011;37650;52.790;18.268;2023-01-19T00:41:23;59.10;;;35.90;;
40170;SDS011;37650;52.790;18.268;2023-01-19T00:45:04;59.40;;;37.40;;
40170;SDS011;37650;52.790;18.268;2023-01-19T00:48:27;59.10;;;36.50;;
40170;SDS011;37650;52.790;18.268;2023-01-19T00:51:49;61.90;;;36.00;;
40170;SDS011;37650;52.790;18.268;2023-01-19T00:55:11;56.40;;;34.80;;
40170;SDS011;37650;52.790;18.268;2023-01-19T00:58:34;59.70;;;37.60;;
40170;SDS011;37650;52.790;18.268;2023-01-19T01:01:56;57.20;;;37.70;;
40170;SDS011;37650;52.790;18.268;2023-01-19T01:05:17;60.20;;;38.20;;
40170;SDS011;37650;52.790;18.268;2023-01-19T01:08:39;57.30;;;35.90;;
40170;SDS011;37650;52.790;18.268;2023-01-19T01:12:00;58.80;;;35.20;;
40170;SDS011;37650;52.790;18.268;2023-01-19T01:15:22;59.90;;;35.00;;
40170;SDS011;37650;52.790;18.268;2023-01-19T01:18:43;53.40;;;34.10;;
40170;SDS011;37650;52.790;18.268;2023-01-19T01:22:05;59.90;;;37.40;;
40170;SDS011;37650;52.790;18.268;2023-01-19T01:25:27;45.90;;;31.40;;
40170;SDS011;37650;52.790;18.268;2023-01-19T01:28:50;51.70;;;32.60;;
40170;SDS011;37650;52.790;18.268;2023-01-19T01:32:13;53.00;;;33.90;;
40170;SDS011;37650;52.790;18.268;2023-01-19T01:35:34;47.80;;;30.80;;
40170;SDS011;37650;52.790;18.268;2023-01-19T01:38:56;49.60;;;29.90;;
40170;SDS011;37650;52.790;18.268;2023-01-19T01:42:19;52.70;;;32.90;;
40170;SDS011;37650;52.790;18.268;2023-01-19T01:45:46;55.20;;;35.30;;
40170;SDS011;37650;52.790;18.268;2023-01-19T01:49:12;60.60;;;36.20;;
40170;SDS011;37650;52.790;18.268;2023-01-19T01:52:37;52.60;;;33.70;;
40170;SDS011;37650;52.790;18.268;2023-01-19T01:56:05;51.60;;;32.40;;
40170;SDS011;37650;52.790;18.268;2023-01-19T01:59:33;56.10;;;34.50;;
40170;SDS011;37650;52.790;18.268;2023-01-19T02:02:59;52.10;;;34.30;;
40170;SDS011;37650;52.790;18.268;2023-01-19T02:06:21;56.90;;;34.70;;
40170;SDS011;37650;52.790;18.268;2023-01-19T02:09:42;53.90;;;34.30;;
40170;SDS011;37650;52.790;18.268;2023-01-19T02:13:22;57.00;;;35.60;;
40170;SDS011;37650;52.790;18.268;2023-01-19T02:16:45;53.00;;;32.90;;
40170;SDS011;37650;52.790;18.268;2023-01-19T02:20:07;52.70;;;31.60;;
40170;SDS011;37650;52.790;18.268;2023-01-19T02:26:57;53.30;;;32.90;;
40170;SDS011;37650;52.790;18.268;2023-01-19T02:30:19;53.60;;;33.30;;
40170;SDS011;37650;52.790;18.268;2023-01-19T02:33:40;49.20;;;31.10;;
40170;SDS011;37650;52.790;18.268;2023-01-19T02:37:11;45.80;;;30.80;;
40170;SDS011;37650;52.790;18.268;2023-01-19T02:40:35;48.10;;;30.80;;
40170;SDS011;37650;52.790;18.268;2023-01-19T02:43:58;50.70;;;31.90;;
40170;SDS011;37650;52.790;18.268;2023-01-19T02:47:21;51.40;;;34.50;;
40170;SDS011;37650;52.790;18.268;2023-01-19T02:50:45;47.40;;;33.60;;
40170;SDS011;37650;52.790;18.268;2023-01-19T02:54:32;55.60;;;34.70;;
40170;SDS011;37650;52.790;18.268;2023-01-19T03:09:28;51.40;;;34.60;;
40170;SDS011;37650;52.790;18.268;2023-01-19T03:13:00;50.60;;;33.00;;
40170;SDS011;37650;52.790;18.268;2023-01-19T03:19:58;53.70;;;34.90;;
40170;SDS011;37650;52.790;18.268;2023-01-19T03:23:23;50.70;;;33.60;;
40170;SDS011;37650;52.790;18.268;2023-01-19T03:26:49;46.80;;;33.80;;
40170;SDS011;37650;52.790;18.268;2023-01-19T03:30:19;53.10;;;35.80;;
40170;SDS011;37650;52.790;18.268;2023-01-19T03:33:48;47.70;;;33.30;;
40170;SDS011;37650;52.790;18.268;2023-01-19T03:37:13;53.40;;;36.20;;
40170;SDS011;37650;52.790;18.268;2023-01-19T03:40:39;53.10;;;36.70;;
40170;SDS011;37650;52.790;18.268;2023-01-19T03:44:01;49.70;;;34.00;;
40170;SDS011;37650;52.790;18.268;2023-01-19T03:47:25;59.50;;;37.40;;
40170;SDS011;37650;52.790;18.268;2023-01-19T03:54:10;60.50;;;36.40;;
40170;SDS011;37650;52.790;18.268;2023-01-19T03:57:31;55.60;;;34.00;;
40170;SDS011;37650;52.790;18.268;2023-01-19T04:00:52;53.00;;;33.90;;
40170;SDS011;37650;52.790;18.268;2023-01-19T04:04:14;54.30;;;34.30;;
40170;SDS011;37650;52.790;18.268;2023-01-19T04:07:36;52.70;;;35.70;;
40170;SDS011;37650;52.790;18.268;2023-01-19T04:10:57;55.60;;;32.70;;
40170;SDS011;37650;52.790;18.268;2023-01-19T04:14:18;53.10;;;32.70;;
40170;SDS011;37650;52.790;18.268;2023-01-19T04:17:39;48.60;;;31.50;;
40170;SDS011;37650;52.790;18.268;2023-01-19T04:21:04;51.60;;;31.40;;
40170;SDS011;37650;52.790;18.268;2023-01-19T04:24:27;44.70;;;29.60;;
40170;SDS011;37650;52.790;18.268;2023-01-19T04:27:50;49.60;;;30.70;;
40170;SDS011;37650;52.790;18.268;2023-01-19T04:31:12;53.00;;;32.40;;
40170;SDS011;37650;52.790;18.268;2023-01-19T04:34:33;49.10;;;32.40;;
40170;SDS011;37650;52.790;18.268;2023-01-19T04:37:55;52.40;;;34.10;;
40170;SDS011;37650;52.790;18.268;2023-01-19T04:41:16;53.00;;;33.80;;
40170;SDS011;37650;52.790;18.268;2023-01-19T04:44:38;51.90;;;32.90;;
40170;SDS011;37650;52.790;18.268;2023-01-19T04:47:59;47.60;;;30.90;;
40170;SDS011;37650;52.790;18.268;2023-01-19T04:51:20;52.10;;;32.70;;
40170;SDS011;37650;52.790;18.268;2023-01-19T04:54:42;53.70;;;34.30;;
40170;SDS011;37650;52.790;18.268;2023-01-19T04:58:03;48.90;;;33.30;;
40170;SDS011;37650;52.790;18.268;2023-01-19T05:01:24;50.30;;;35.10;;
40170;SDS011;37650;52.790;18.268;2023-01-19T05:04:45;56.00;;;35.50;;
40170;SDS011;37650;52.790;18.268;2023-01-19T05:08:07;55.00;;;35.00;;
40170;SDS011;37650;52.790;18.268;2023-01-19T05:11:28;47.10;;;31.50;;
40170;SDS011;37650;52.790;18.268;2023-01-19T05:14:49;53.80;;;30.80;;
40170;SDS011;37650;52.790;18.268;2023-01-19T05:18:11;46.70;;;31.80;;
40170;SDS011;37650;52.790;18.268;2023-01-19T05:21:32;45.90;;;29.90;;
40170;SDS011;37650;52.790;18.268;2023-01-19T05:24:53;46.30;;;30.40;;
40170;SDS011;37650;52.790;18.268;2023-01-19T05:28:15;45.20;;;31.70;;
40170;SDS011;37650;52.790;18.268;2023-01-19T05:31:36;44.00;;;29.90;;
40170;SDS011;37650;52.790;18.268;2023-01-19T05:34:58;48.40;;;30.40;;
40170;SDS011;37650;52.790;18.268;2023-01-19T05:38:19;44.60;;;28.50;;
40170;SDS011;37650;52.790;18.268;2023-01-19T05:41:41;43.70;;;29.00;;
40170;SDS011;37650;52.790;18.268;2023-01-19T05:45:05;39.80;;;26.10;;
40170;SDS011;37650;52.790;18.268;2023-01-19T05:48:26;49.50;;;29.80;;
40170;SDS011;37650;52.790;18.268;2023-01-19T05:51:47;51.10;;;32.90;;
40170;SDS011;37650;52.790;18.268;2023-01-19T05:55:09;47.10;;;31.40;;
40170;SDS011;37650;52.790;18.268;2023-01-19T05:58:31;54.90;;;31.60;;
40170;SDS011;37650;52.790;18.268;2023-01-19T06:01:53;48.00;;;30.70;;
40170;SDS011;37650;52.790;18.268;2023-01-19T06:05:15;51.90;;;30.70;;
40170;SDS011;37650;52.790;18.268;2023-01-19T06:08:36;52.80;;;31.40;;
40170;SDS011;37650;52.790;18.268;2023-01-19T06:11:57;56.10;;;34.50;;
40170;SDS011;37650;52.790;18.268;2023-01-19T06:15:19;67.50;;;41.20;;
40170;SDS011;37650;52.790;18.268;2023-01-19T06:18:40;65.20;;;38.70;;
40170;SDS011;37650;52.790;18.268;2023-01-19T06:22:01;60.60;;;37.30;;
40170;SDS011;37650;52.790;18.268;2023-01-19T06:25:23;59.10;;;37.10;;
40170;SDS011;37650;52.790;18.268;2023-01-19T06:28:45;53.70;;;34.00;;
40170;SDS011;37650;52.790;18.268;2023-01-19T06:32:08;45.90;;;30.20;;
40170;SDS011;37650;52.790;18.268;2023-01-19T06:35:29;43.70;;;27.90;;
40170;SDS011;37650;52.790;18.268;2023-01-19T06:38:51;59.00;;;34.30;;
40170;SDS011;37650;52.790;18.268;2023-01-19T06:42:12;69.30;;;36.50;;
40170;SDS011;37650;52.790;18.268;2023-01-19T06:45:34;56.80;;;33.70;;
40170;SDS011;37650;52.790;18.268;2023-01-19T06:48:55;59.10;;;33.20;;
40170;SDS011;37650;52.790;18.268;2023-01-19T06:52:16;58.90;;;32.40;;
40170;SDS011;37650;52.790;18.268;2023-01-19T06:55:39;60.20;;;34.80;;
40170;SDS011;37650;52.790;18.268;2023-01-19T06:59:01;59.40;;;34.10;;
40170;SDS011;37650;52.790;18.268;2023-01-19T07:02:22;55.70;;;32.90;;
40170;SDS011;37650;52.790;18.268;2023-01-19T07:05:44;66.00;;;38.70;;
40170;SDS011;37650;52.790;18.268;2023-01-19T07:09:05;62.80;;;35.50;;
40170;SDS011;37650;52.790;18.268;2023-01-19T07:12:29;67.40;;;37.60;;
40170;SDS011;37650;52.790;18.268;2023-01-19T07:15:51;78.20;;;40.40;;
40170;SDS011;37650;52.790;18.268;2023-01-19T07:19:12;63.80;;;39.90;;
40170;SDS011;37650;52.790;18.268;2023-01-19T07:22:33;63.40;;;38.90;;
40170;SDS011;37650;52.790;18.268;2023-01-19T07:25:57;60.60;;;35.50;;
40170;SDS011;37650;52.790;18.268;2023-01-19T07:29:21;58.50;;;36.90;;
40170;SDS011;37650;52.790;18.268;2023-01-19T07:32:55;67.10;;;37.20;;
40170;SDS011;37650;52.790;18.268;2023-01-19T07:36:17;65.90;;;39.00;;
40170;SDS011;37650;52.790;18.268;2023-01-19T07:39:38;65.20;;;39.80;;
40170;SDS011;37650;52.790;18.268;2023-01-19T07:42:59;59.00;;;33.10;;
40170;SDS011;37650;52.790;18.268;2023-01-19T07:46:20;54.60;;;36.30;;
40170;SDS011;37650;52.790;18.268;2023-01-19T07:49:42;61.30;;;35.20;;
40170;SDS011;37650;52.790;18.268;2023-01-19T07:53:04;51.00;;;33.10;;
40170;SDS011;37650;52.790;18.268;2023-01-19T07:56:26;53.90;;;32.30;;
40170;SDS011;37650;52.790;18.268;2023-01-19T07:59:50;108.10;;;53.30;;
40170;SDS011;37650;52.790;18.268;2023-01-19T08:03:11;91.00;;;49.10;;
40170;SDS011;37650;52.790;18.268;2023-01-19T08:06:33;102.70;;;52.70;;
40170;SDS011;37650;52.790;18.268;2023-01-19T08:09:56;80.90;;;46.60;;
40170;SDS011;37650;52.790;18.268;2023-01-19T08:13:18;57.00;;;34.00;;
40170;SDS011;37650;52.790;18.268;2023-01-19T08:16:39;53.40;;;33.20;;
40170;SDS011;37650;52.790;18.268;2023-01-19T08:20:01;57.60;;;37.00;;
40170;SDS011;37650;52.790;18.268;2023-01-19T08:23:23;64.10;;;39.40;;
40170;SDS011;37650;52.790;18.268;2023-01-19T08:26:44;56.60;;;37.70;;
40170;SDS011;37650;52.790;18.268;2023-01-19T08:30:06;63.70;;;39.30;;
40170;SDS011;37650;52.790;18.268;2023-01-19T08:33:27;63.90;;;43.50;;
40170;SDS011;37650;52.790;18.268;2023-01-19T08:36:48;72.30;;;46.80;;
40170;SDS011;37650;52.790;18.268;2023-01-19T08:40:10;75.90;;;51.40;;
40170;SDS011;37650;52.790;18.268;2023-01-19T08:43:32;81.50;;;49.90;;
40170;SDS011;37650;52.790;18.268;2023-01-19T08:46:53;94.90;;;54.60;;
40170;SDS011;37650;52.790;18.268;2023-01-19T08:50:14;127.00;;;69.80;;
40170;SDS011;37650;52.790;18.268;2023-01-19T08:53:36;91.30;;;55.20;;
40170;SDS011;37650;52.790;18.268;2023-01-19T08:56:57;89.20;;;55.30;;
40170;SDS011;37650;52.790;18.268;2023-01-19T09:00:19;203.10;;;85.40;;
40170;SDS011;37650;52.790;18.268;2023-01-19T09:03:42;243.30;;;99.70;;
40170;SDS011;37650;52.790;18.268;2023-01-19T09:07:04;121.20;;;64.60;;
40170;SDS011;37650;52.790;18.268;2023-01-19T09:10:25;121.30;;;61.90;;
40170;SDS011;37650;52.790;18.268;2023-01-19T09:13:48;91.80;;;54.80;;
40170;SDS011;37650;52.790;18.268;2023-01-19T09:17:09;72.30;;;46.10;;
40170;SDS011;37650;52.790;18.268;2023-01-19T09:20:30;71.60;;;46.40;;
40170;SDS011;37650;52.790;18.268;2023-01-19T09:23:53;80.20;;;49.30;;
40170;SDS011;37650;52.790;18.268;2023-01-19T09:27:14;79.10;;;48.60;;
40170;SDS011;37650;52.790;18.268;2023-01-19T09:30:36;74.70;;;47.40;;
40170;SDS011;37650;52.790;18.268;2023-01-19T09:33:59;81.50;;;46.60;;
40170;SDS011;37650;52.790;18.268;2023-01-19T09:37:20;83.70;;;49.20;;
40170;SDS011;37650;52.790;18.268;2023-01-19T09:40:42;82.30;;;48.80;;
40170;SDS011;37650;52.790;18.268;2023-01-19T09:44:04;85.00;;;49.80;;
40170;SDS011;37650;52.790;18.268;2023-01-19T09:47:27;90.90;;;54.00;;
40170;SDS011;37650;52.790;18.268;2023-01-19T09:50:49;96.60;;;57.40;;
40170;SDS011;37650;52.790;18.268;2023-01-19T09:54:15;89.40;;;57.10;;
40170;SDS011;37650;52.790;18.268;2023-01-19T10:01:01;122.90;;;64.80;;
40170;SDS011;37650;52.790;18.268;2023-01-19T10:04:46;116.60;;;71.80;;
40170;SDS011;37650;52.790;18.268;2023-01-19T10:08:18;115.50;;;71.40;;
40170;SDS011;37650;52.790;18.268;2023-01-19T10:11:43;120.80;;;73.50;;
40170;SDS011;37650;52.790;18.268;2023-01-19T10:15:49;116.50;;;68.10;;
40170;SDS011;37650;52.790;18.268;2023-01-19T10:22:48;108.20;;;62.80;;
40170;SDS011;37650;52.790;18.268;2023-01-19T10:26:17;117.70;;;66.50;;
40170;SDS011;37650;52.790;18.268;2023-01-19T10:29:39;130.50;;;70.40;;
40170;SDS011;37650;52.790;18.268;2023-01-19T10:33:01;137.40;;;74.00;;
40170;SDS011;37650;52.790;18.268;2023-01-19T10:36:33;147.70;;;81.60;;
40170;SDS011;37650;52.790;18.268;2023-01-19T10:39:58;134.90;;;77.60;;
40170;SDS011;37650;52.790;18.268;2023-01-19T10:43:45;87.80;;;51.90;;
40170;SDS011;37650;52.790;18.268;2023-01-19T10:47:12;81.20;;;49.70;;
40170;SDS011;37650;52.790;18.268;2023-01-19T10:50:37;79.70;;;44.90;;
40170;SDS011;37650;52.790;18.268;2023-01-19T10:54:01;90.70;;;47.90;;
40170;SDS011;37650;52.790;18.268;2023-01-19T10:57:30;101.70;;;53.80;;
40170;SDS011;37650;52.790;18.268;2023-01-19T11:04:32;101.70;;;56.10;;
40170;SDS011;37650;52.790;18.268;2023-01-19T11:07:54;113.60;;;61.50;;
40170;SDS011;37650;52.790;18.268;2023-01-19T11:11:17;126.00;;;65.50;;
40170;SDS011;37650;52.790;18.268;2023-01-19T11:14:39;120.90;;;65.00;;
40170;SDS011;37650;52.790;18.268;2023-01-19T11:18:02;100.20;;;55.40;;
40170;SDS011;37650;52.790;18.268;2023-01-19T11:21:25;106.30;;;57.40;;
40170;SDS011;37650;52.790;18.268;2023-01-19T11:24:48;93.80;;;53.60;;
40170;SDS011;37650;52.790;18.268;2023-01-19T11:28:44;99.80;;;53.10;;
40170;SDS011;37650;52.790;18.268;2023-01-19T11:32:10;93.80;;;52.10;;
40170;SDS011;37650;52.790;18.268;2023-01-19T11:35:40;98.90;;;55.50;;
40170;SDS011;37650;52.790;18.268;2023-01-19T11:39:21;145.00;;;74.10;;
40170;SDS011;37650;52.790;18.268;2023-01-19T11:42:43;110.50;;;55.90;;
40170;SDS011;37650;52.790;18.268;2023-01-19T11:46:05;102.50;;;54.30;;
40170;SDS011;37650;52.790;18.268;2023-01-19T11:49:36;257.90;;;119.00;;
40170;SDS011;37650;52.790;18.268;2023-01-19T11:53:06;221.20;;;99.00;;
40170;SDS011;37650;52.790;18.268;2023-01-19T12:04:27;104.10;;;53.20;;
40170;SDS011;37650;52.790;18.268;2023-01-19T12:07:51;86.90;;;47.30;;
40170;SDS011;37650;52.790;18.268;2023-01-19T12:11:15;87.30;;;51.60;;
40170;SDS011;37650;52.790;18.268;2023-01-19T12:14:41;95.80;;;49.40;;
40170;SDS011;37650;52.790;18.268;2023-01-19T12:18:06;115.90;;;54.90;;
40170;SDS011;37650;52.790;18.268;2023-01-19T12:21:36;135.60;;;67.00;;
40170;SDS011;37650;52.790;18.268;2023-01-19T12:25:02;359.40;;;227.50;;
40170;SDS011;37650;52.790;18.268;2023-01-19T12:28:41;112.00;;;65.00;;
40170;SDS011;37650;52.790;18.268;2023-01-19T12:39:26;125.60;;;66.50;;
40170;SDS011;37650;52.790;18.268;2023-01-19T12:43:02;104.70;;;60.60;;
40170;SDS011;37650;52.790;18.268;2023-01-19T12:46:28;182.80;;;94.70;;
40170;SDS011;37650;52.790;18.268;2023-01-19T12:50:03;105.30;;;55.90;;
40170;SDS011;37650;52.790;18.268;2023-01-19T12:53:26;135.40;;;66.70;;
40170;SDS011;37650;52.790;18.268;2023-01-19T12:56:51;134.30;;;68.60;;
40170;SDS011;37650;52.790;18.268;2023-01-19T13:03:42;71.40;;;42.20;;
40170;SDS011;37650;52.790;18.268;2023-01-19T13:07:22;73.80;;;43.20;;
40170;SDS011;37650;52.790;18.268;2023-01-19T13:14:33;85.00;;;51.60;;
40170;SDS011;37650;52.790;18.268;2023-01-19T13:17:56;76.00;;;45.70;;
40170;SDS011;37650;52.790;18.268;2023-01-19T13:21:30;82.90;;;50.40;;
40170;SDS011;37650;52.790;18.268;2023-01-19T13:25:06;69.90;;;43.20;;
40170;SDS011;37650;52.790;18.268;2023-01-19T13:28:42;77.50;;;47.00;;
40170;SDS011;37650;52.790;18.268;2023-01-19T13:32:12;79.20;;;44.80;;
40170;SDS011;37650;52.790;18.268;2023-01-19T13:35:37;84.20;;;48.00;;
40170;SDS011;37650;52.790;18.268;2023-01-19T13:39:12;76.20;;;44.50;;
40170;SDS011;37650;52.790;18.268;2023-01-19T13:42:37;72.50;;;44.50;;
40170;SDS011;37650;52.790;18.268;2023-01-19T13:46:00;74.00;;;41.50;;
40170;SDS011;37650;52.790;18.268;2023-01-19T13:52:50;70.40;;;39.80;;
40170;SDS011;37650;52.790;18.268;2023-01-19T13:56:20;79.00;;;44.30;;
40170;SDS011;37650;52.790;18.268;2023-01-19T13:59:42;75.70;;;41.70;;
40170;SDS011;37650;52.790;18.268;2023-01-19T14:06:39;73.00;;;43.30;;
40170;SDS011;37650;52.790;18.268;2023-01-19T14:10:09;67.00;;;42.60;;
40170;SDS011;37650;52.790;18.268;2023-01-19T14:13:34;82.30;;;44.70;;
40170;SDS011;37650;52.790;18.268;2023-01-19T14:17:02;100.60;;;45.10;;
40170;SDS011;37650;52.790;18.268;2023-01-19T14:20:28;86.90;;;43.40;;
40170;SDS011;37650;52.790;18.268;2023-01-19T14:23:54;69.80;;;39.00;;
40170;SDS011;37650;52.790;18.268;2023-01-19T14:27:30;73.20;;;40.80;;
40170;SDS011;37650;52.790;18.268;2023-01-19T14:38:09;69.30;;;40.60;;
40170;SDS011;37650;52.790;18.268;2023-01-19T14:41:46;87.10;;;44.50;;
40170;SDS011;37650;52.790;18.268;2023-01-19T14:45:16;69.30;;;42.20;;
40170;SDS011;37650;52.790;18.268;2023-01-19T14:48:39;67.90;;;40.00;;
40170;SDS011;37650;52.790;18.268;2023-01-19T14:52:20;69.50;;;37.80;;
40170;SDS011;37650;52.790;18.268;2023-01-19T14:56:22;57.30;;;36.60;;
40170;SDS011;37650;52.790;18.268;2023-01-19T14:59:43;65.00;;;38.10;;
40170;SDS011;37650;52.790;18.268;2023-01-19T15:03:09;65.50;;;40.70;;
40170;SDS011;37650;52.790;18.268;2023-01-19T15:10:22;81.20;;;48.70;;
40170;SDS011;37650;52.790;18.268;2023-01-19T15:13:45;77.20;;;47.90;;
40170;SDS011;37650;52.790;18.268;2023-01-19T15:17:14;73.90;;;46.60;;
40170;SDS011;37650;52.790;18.268;2023-01-19T15:20:44;76.30;;;45.20;;
40170;SDS011;37650;52.790;18.268;2023-01-19T15:24:07;75.90;;;49.10;;
40170;SDS011;37650;52.790;18.268;2023-01-19T15:27:29;72.40;;;42.00;;
40170;SDS011;37650;52.790;18.268;2023-01-19T15:30:50;73.20;;;44.60;;
40170;SDS011;37650;52.790;18.268;2023-01-19T15:34:13;78.60;;;47.50;;
40170;SDS011;37650;52.790;18.268;2023-01-19T15:37:34;85.30;;;48.60;;
40170;SDS011;37650;52.790;18.268;2023-01-19T15:40:56;97.30;;;51.00;;
40170;SDS011;37650;52.790;18.268;2023-01-19T15:44:18;95.00;;;52.00;;
40170;SDS011;37650;52.790;18.268;2023-01-19T15:47:39;87.00;;;51.00;;
40170;SDS011;37650;52.790;18.268;2023-01-19T15:51:01;82.90;;;49.90;;
40170;SDS011;37650;52.790;18.268;2023-01-19T15:54:22;170.40;;;81.20;;
40170;SDS011;37650;52.790;18.268;2023-01-19T15:57:43;170.50;;;74.20;;
40170;SDS011;37650;52.790;18.268;2023-01-19T16:04:31;146.10;;;79.40;;
40170;SDS011;37650;52.790;18.268;2023-01-19T16:07:53;140.30;;;71.50;;
40170;SDS011;37650;52.790;18.268;2023-01-19T16:11:14;119.20;;;67.20;;
40170;SDS011;37650;52.790;18.268;2023-01-19T16:14:38;301.50;;;122.40;;
40170;SDS011;37650;52.790;18.268;2023-01-19T16:18:01;582.20;;;242.50;;
40170;SDS011;37650;52.790;18.268;2023-01-19T16:21:23;272.70;;;119.40;;
40170;SDS011;37650;52.790;18.268;2023-01-19T16:24:45;173.80;;;85.20;;
40170;SDS011;37650;52.790;18.268;2023-01-19T16:28:07;148.60;;;77.20;;
40170;SDS011;37650;52.790;18.268;2023-01-19T16:31:29;395.70;;;176.80;;
40170;SDS011;37650;52.790;18.268;2023-01-19T16:34:50;396.80;;;220.10;;
40170;SDS011;37650;52.790;18.268;2023-01-19T16:38:11;442.70;;;298.30;;
40170;SDS011;37650;52.790;18.268;2023-01-19T16:41:33;212.70;;;133.10;;
40170;SDS011;37650;52.790;18.268;2023-01-19T16:44:55;627.20;;;298.10;;
40170;SDS011;37650;52.790;18.268;2023-01-19T16:48:17;450.70;;;217.70;;
40170;SDS011;37650;52.790;18.268;2023-01-19T16:51:39;358.40;;;164.80;;
40170;SDS011;37650;52.790;18.268;2023-01-19T16:55:02;321.40;;;152.30;;
40170;SDS011;37650;52.790;18.268;2023-01-19T16:58:28;279.70;;;140.70;;
40170;SDS011;37650;52.790;18.268;2023-01-19T17:01:50;206.90;;;112.20;;
40170;SDS011;37650;52.790;18.268;2023-01-19T17:05:12;166.10;;;91.20;;
40170;SDS011;37650;52.790;18.268;2023-01-19T17:08:36;74.00;;;42.80;;
40170;SDS011;37650;52.790;18.268;2023-01-19T17:11:58;65.10;;;39.00;;
40170;SDS011;37650;52.790;18.268;2023-01-19T17:15:20;62.10;;;39.00;;
40170;SDS011;37650;52.790;18.268;2023-01-19T17:18:42;66.50;;;38.80;;
40170;SDS011;37650;52.790;18.268;2023-01-19T17:22:05;64.40;;;38.00;;
40170;SDS011;37650;52.790;18.268;2023-01-19T17:25:27;66.90;;;36.70;;
40170;SDS011;37650;52.790;18.268;2023-01-19T17:28:48;58.80;;;35.70;;
40170;SDS011;37650;52.790;18.268;2023-01-19T17:32:10;65.40;;;38.70;;
40170;SDS011;37650;52.790;18.268;2023-01-19T17:35:32;85.80;;;49.80;;
40170;SDS011;37650;52.790;18.268;2023-01-19T17:38:59;77.10;;;46.20;;
40170;SDS011;37650;52.790;18.268;2023-01-19T17:42:26;67.60;;;39.10;;
40170;SDS011;37650;52.790;18.268;2023-01-19T17:49:10;73.90;;;44.90;;
40170;SDS011;37650;52.790;18.268;2023-01-19T17:52:35;123.10;;;75.60;;
40170;SDS011;37650;52.790;18.268;2023-01-19T17:56:03;91.70;;;55.20;;
40170;SDS011;37650;52.790;18.268;2023-01-19T17:59:25;67.50;;;40.10;;
40170;SDS011;37650;52.790;18.268;2023-01-19T18:02:49;63.40;;;40.80;;
40170;SDS011;37650;52.790;18.268;2023-01-19T18:06:13;448.60;;;226.90;;
40170;SDS011;37650;52.790;18.268;2023-01-19T18:09:37;120.00;;;60.00;;
40170;SDS011;37650;52.790;18.268;2023-01-19T18:13:00;56.60;;;33.50;;
40170;SDS011;37650;52.790;18.268;2023-01-19T18:16:24;69.80;;;36.50;;
40170;SDS011;37650;52.790;18.268;2023-01-19T18:19:47;124.40;;;48.20;;
40170;SDS011;37650;52.790;18.268;2023-01-19T18:23:10;197.70;;;76.30;;
40170;SDS011;37650;52.790;18.268;2023-01-19T18:26:34;156.50;;;65.70;;
40170;SDS011;37650;52.790;18.268;2023-01-19T18:29:59;62.30;;;33.70;;
40170;SDS011;37650;52.790;18.268;2023-01-19T18:33:23;56.40;;;33.00;;
40170;SDS011;37650;52.790;18.268;2023-01-19T18:36:50;101.10;;;51.40;;
40170;SDS011;37650;52.790;18.268;2023-01-19T18:40:13;48.30;;;29.00;;
40170;SDS011;37650;52.790;18.268;2023-01-19T18:43:39;69.70;;;37.60;;
40170;SDS011;37650;52.790;18.268;2023-01-19T18:47:05;84.60;;;46.90;;
40170;SDS011;37650;52.790;18.268;2023-01-19T18:50:29;57.00;;;33.30;;
40170;SDS011;37650;52.790;18.268;2023-01-19T18:53:55;42.10;;;26.00;;
40170;SDS011;37650;52.790;18.268;2023-01-19T18:57:20;41.70;;;26.70;;
40170;SDS011;37650;52.790;18.268;2023-01-19T19:00:43;39.80;;;25.60;;
40170;SDS011;37650;52.790;18.268;2023-01-19T19:04:07;39.80;;;23.90;;
40170;SDS011;37650;52.790;18.268;2023-01-19T19:07:32;43.40;;;25.60;;
40170;SDS011;37650;52.790;18.268;2023-01-19T19:11:00;37.60;;;23.10;;
40170;SDS011;37650;52.790;18.268;2023-01-19T19:14:30;38.50;;;23.90;;
40170;SDS011;37650;52.790;18.268;2023-01-19T19:18:04;41.50;;;26.60;;
40170;SDS011;37650;52.790;18.268;2023-01-19T19:21:31;41.60;;;24.30;;
40170;SDS011;37650;52.790;18.268;2023-01-19T19:24:55;35.40;;;21.10;;
40170;SDS011;37650;52.790;18.268;2023-01-19T19:28:21;33.90;;;20.40;;
40170;SDS011;37650;52.790;18.268;2023-01-19T19:31:44;34.70;;;21.10;;
40170;SDS011;37650;52.790;18.268;2023-01-19T19:38:32;35.60;;;22.90;;
40170;SDS011;37650;52.790;18.268;2023-01-19T19:42:03;51.10;;;26.90;;
40170;SDS011;37650;52.790;18.268;2023-01-19T19:45:26;28.50;;;16.90;;
40170;SDS011;37650;52.790;18.268;2023-01-19T19:48:51;49.20;;;26.00;;
40170;SDS011;37650;52.790;18.268;2023-01-19T19:52:14;33.90;;;20.00;;
40170;SDS011;37650;52.790;18.268;2023-01-19T19:55:38;34.00;;;19.30;;
40170;SDS011;37650;52.790;18.268;2023-01-19T19:59:00;27.00;;;15.70;;
40170;SDS011;37650;52.790;18.268;2023-01-19T20:02:23;27.70;;;17.30;;
40170;SDS011;37650;52.790;18.268;2023-01-19T20:05:46;27.90;;;16.10;;
40170;SDS011;37650;52.790;18.268;2023-01-19T20:09:11;23.90;;;14.60;;
40170;SDS011;37650;52.790;18.268;2023-01-19T20:12:35;40.60;;;20.90;;
40170;SDS011;37650;52.790;18.268;2023-01-19T20:16:08;59.60;;;26.90;;
40170;SDS011;37650;52.790;18.268;2023-01-19T20:19:39;46.60;;;23.10;;
40170;SDS011;37650;52.790;18.268;2023-01-19T20:23:03;54.60;;;24.50;;
40170;SDS011;37650;52.790;18.268;2023-01-19T20:26:27;76.50;;;32.50;;
40170;SDS011;37650;52.790;18.268;2023-01-19T20:29:51;43.80;;;19.90;;
40170;SDS011;37650;52.790;18.268;2023-01-19T20:33:18;52.60;;;23.90;;
40170;SDS011;37650;52.790;18.268;2023-01-19T20:36:44;37.80;;;18.30;;
40170;SDS011;37650;52.790;18.268;2023-01-19T20:40:12;60.00;;;22.00;;
40170;SDS011;37650;52.790;18.268;2023-01-19T20:43:38;41.50;;;18.60;;
40170;SDS011;37650;52.790;18.268;2023-01-19T20:47:01;41.00;;;20.60;;
40170;SDS011;37650;52.790;18.268;2023-01-19T20:50:24;30.50;;;16.30;;
40170;SDS011;37650;52.790;18.268;2023-01-19T20:53:47;50.90;;;21.70;;
40170;SDS011;37650;52.790;18.268;2023-01-19T20:57:10;31.70;;;16.80;;